createdAt,value
2023-09-08T00:00:56.552Z,95088.59
2023-09-08T00:03:23.539Z,95091.16
2023-09-08T00:05:50.939Z,95089.91
2023-09-08T00:08:17.604Z,95086.47
2023-09-08T00:10:43.962Z,95091.00
2023-09-08T00:13:10.308Z,95084.28
2023-09-08T00:15:36.682Z,95093.00
2023-09-08T00:18:03.209Z,95088.88
2023-09-08T00:20:29.715Z,95086.69
2023-09-08T00:22:56.360Z,95091.44
2023-09-08T00:25:22.786Z,95086.16
2023-09-08T00:27:49.439Z,95086.00
2023-09-08T00:30:15.917Z,95087.06
2023-09-08T00:32:42.548Z,95084.81
2023-09-08T00:35:09.434Z,95080.50
2023-09-08T00:37:35.940Z,95087.59
2023-09-08T00:40:05.201Z,95075.09
2023-09-08T00:42:31.649Z,95087.66
2023-09-08T00:44:57.997Z,95083.19
2023-09-08T00:47:24.432Z,95085.50
2023-09-08T00:49:50.897Z,95089.97
2023-09-08T00:52:17.422Z,95084.63
2023-09-08T00:54:43.849Z,95082.59
2023-09-08T00:57:10.337Z,95080.16
2023-09-08T00:59:36.928Z,95078.16
2023-09-08T01:02:03.874Z,95081.88
2023-09-08T01:04:30.698Z,95084.47
2023-09-08T01:06:57.120Z,95091.47
2023-09-08T01:09:23.586Z,95092.78
2023-09-08T01:11:49.994Z,95092.78
2023-09-08T01:14:16.625Z,95091.19
2023-09-08T01:16:43.463Z,95086.06
2023-09-08T01:19:09.902Z,95088.50
2023-09-08T01:21:36.357Z,95096.47
2023-09-08T01:24:02.699Z,95090.59
2023-09-08T01:26:29.211Z,95089.81
2023-09-08T01:28:55.672Z,95097.06
2023-09-08T01:31:22.350Z,95102.19
2023-09-08T01:33:48.813Z,95093.09
2023-09-08T01:36:15.266Z,95096.97
2023-09-08T01:38:41.987Z,95087.31
2023-09-08T01:41:08.989Z,95086.84
2023-09-08T01:43:35.648Z,95089.91
2023-09-08T01:46:02.313Z,95082.69
2023-09-08T01:48:29.226Z,95085.22
2023-09-08T01:50:56.704Z,95086.25
2023-09-08T01:53:23.237Z,95083.22
2023-09-08T01:55:49.636Z,95081.34
2023-09-08T01:58:16.107Z,95083.44
2023-09-08T02:00:42.623Z,95085.28
2023-09-08T02:03:10.492Z,95085.28
2023-09-08T02:05:37.322Z,95074.44
2023-09-08T02:08:03.817Z,95079.63
2023-09-08T02:10:30.253Z,95086.06
2023-09-08T02:12:58.744Z,95077.63
2023-09-08T02:15:25.288Z,95081.59
2023-09-08T02:17:51.778Z,95079.56
2023-09-08T02:20:18.307Z,95079.41
2023-09-08T02:22:44.947Z,95082.69
2023-09-08T02:25:11.704Z,95084.75
2023-09-08T02:27:38.277Z,95076.94
2023-09-08T02:30:04.700Z,95082.31
2023-09-08T02:32:31.123Z,95079.84
2023-09-08T02:34:57.514Z,95081.13
2023-09-08T02:37:23.889Z,95083.19
2023-09-08T02:39:50.207Z,95085.44
2023-09-08T02:42:16.582Z,95087.72
2023-09-08T02:44:43.070Z,95083.47
2023-09-08T02:47:09.503Z,95093.22
2023-09-08T02:49:35.935Z,95084.97
2023-09-08T02:52:02.496Z,95085.22
2023-09-08T02:54:28.959Z,95095.09
2023-09-08T02:56:55.515Z,95087.88
2023-09-08T02:59:21.927Z,95093.00
2023-09-08T03:01:48.439Z,95096.28
2023-09-08T03:04:14.844Z,95089.09
2023-09-08T03:06:41.283Z,95087.47
2023-09-08T03:09:07.825Z,95092.34
2023-09-08T03:11:34.241Z,95097.50
2023-09-08T03:14:00.697Z,95098.16
2023-09-08T03:16:27.313Z,95100.06
2023-09-08T03:18:53.757Z,95105.00
2023-09-08T03:21:20.230Z,95099.47
2023-09-08T03:23:46.746Z,95108.56
2023-09-08T03:26:13.342Z,95101.59
2023-09-08T03:28:40.135Z,95105.94
2023-09-08T03:31:06.665Z,95101.22
2023-09-08T03:33:33.616Z,95103.75
2023-09-08T03:36:00.204Z,95101.69
2023-09-08T03:38:26.550Z,95100.25
2023-09-08T03:40:52.892Z,95094.44
2023-09-08T03:43:19.465Z,95095.88
2023-09-08T03:45:45.946Z,95086.25
2023-09-08T03:48:12.413Z,95089.69
2023-09-08T03:50:38.852Z,95086.50
2023-09-08T03:53:06.230Z,95091.44
2023-09-08T03:55:32.689Z,95088.84
2023-09-08T03:57:59.040Z,95094.59
2023-09-08T04:00:25.481Z,95092.38
2023-09-08T04:02:51.931Z,95099.34
2023-09-08T04:05:19.177Z,95094.00
2023-09-08T04:07:45.676Z,95101.44
2023-09-08T04:10:12.431Z,95101.88
2023-09-08T04:12:38.825Z,95108.84
2023-09-08T04:15:14.001Z,95100.66
2023-09-08T04:17:41.665Z,95093.66
2023-09-08T04:20:08.065Z,95099.63
2023-09-08T04:22:43.812Z,95093.50
2023-09-08T04:25:10.173Z,95096.41
2023-09-08T04:27:38.147Z,95091.47
2023-09-08T04:30:04.789Z,95098.69
2023-09-08T04:32:31.200Z,95105.06
2023-09-08T04:34:57.570Z,95103.22
2023-09-08T04:37:25.302Z,95109.38
2023-09-08T04:39:51.656Z,95113.09
2023-09-08T21:48:16.410Z,94988.63
2023-09-08T21:50:42.994Z,94981.13
2023-09-08T21:53:10.374Z,94983.16
2023-09-08T21:55:36.826Z,94995.09
2023-09-08T21:58:03.446Z,94988.78
2023-09-08T22:00:29.789Z,94993.56
2023-09-08T22:02:56.360Z,94985.88
2023-09-08T22:05:23.035Z,94977.09
2023-09-08T22:07:49.422Z,94984.34
2023-09-08T22:10:15.985Z,94982.25
2023-09-08T22:12:42.488Z,94981.19
2023-09-08T22:15:08.850Z,94983.28
2023-09-08T22:17:35.523Z,94978.41
2023-09-08T22:20:02.125Z,94972.91
2023-09-08T22:22:29.494Z,94987.28
2023-09-08T22:24:56.270Z,94974.22
2023-09-08T22:27:26.587Z,94981.84
2023-09-08T22:29:55.376Z,94972.84
2023-09-08T22:32:21.936Z,94985.09
2023-09-08T22:34:48.509Z,94988.16
2023-09-08T22:37:15.189Z,94986.72
2023-09-08T22:39:42.302Z,94987.06
2023-09-08T22:44:49.074Z,94988.03
2023-09-08T22:47:15.437Z,94985.69
2023-09-08T22:49:41.810Z,94985.56
2023-09-08T22:52:08.233Z,94981.72
2023-09-08T22:54:34.659Z,94985.56
2023-09-08T22:57:01.245Z,94980.63
2023-09-08T22:59:27.648Z,94977.13
2023-09-08T23:01:54.060Z,94982.06
2023-09-08T23:04:20.444Z,94982.16
2023-09-08T23:06:46.865Z,94987.91
2023-09-08T23:09:14.727Z,94982.06
2023-09-08T23:11:41.205Z,94984.50
2023-09-08T23:14:08.736Z,94986.97
2023-09-08T23:16:35.175Z,94983.47
2023-09-08T23:19:01.553Z,94980.78
2023-09-08T23:21:27.913Z,94981.38
2023-09-08T23:23:54.614Z,94984.50
2023-09-08T23:26:21.026Z,94974.81
2023-09-08T23:28:47.446Z,94986.34
2023-09-08T23:31:13.990Z,94989.50
2023-09-08T23:33:41.437Z,94982.38
2023-09-08T23:36:08.516Z,94991.00
2023-09-08T23:38:34.885Z,94985.50
2023-09-08T23:41:01.312Z,94988.84
2023-09-08T23:43:27.778Z,94989.34
2023-09-08T23:45:54.207Z,94992.09
2023-09-08T23:48:20.548Z,94984.06
2023-09-08T23:50:47.110Z,94986.97
2023-09-08T23:53:13.714Z,94989.91
2023-09-08T23:55:40.340Z,94988.34
2023-09-08T23:58:07.825Z,94990.88
